logo tempoitalia

Diretta Meteo Sherman-Denison, Stati Uniti (USA)lunedì 31 agosto ore 01:35

Mappa
Sereno 29 °C Sereno 24 Ore: T.min 26 T.max 37
Ponente Sud/Sud-Est Km/h 13 Punto di rugiada: 17 °C Umidità: 48% Visibilità: 10 Km
Il sole sorge alle: 07:00 Il sole tramonta alle: 19:53
31 Agosto 2026 01:35 tempo osservato: Sereno Sereno 29 48 1015 vento: Nord S/SE 13
31 Agosto 2026 01:15 tempo osservato: Sereno Sereno 29 48 1015 vento: Nord S 14.8
31 Agosto 2026 00:55 tempo osservato: Sereno Sereno 30 42 1015 vento: Nord S/SE 14.8
31 Agosto 2026 00:35 tempo osservato: Sereno Sereno 30 42 1015 vento: Nord S/SE 14.8
31 Agosto 2026 00:15 tempo osservato: Sereno Sereno 30 42 1015 vento: Nord S/SE 16.7
30 Agosto 2026 23:55 tempo osservato: Sereno Sereno 30 42 1015 vento: Nord S/SE 16.7
30 Agosto 2026 23:35 tempo osservato: Sereno Sereno 30 42 1015 vento: Nord S/SE 14.8
30 Agosto 2026 23:15 tempo osservato: Sereno Sereno 30 42 1015 vento: Nord S/SE 14.8
30 Agosto 2026 22:55 tempo osservato: Sereno Sereno 31 40 1014 vento: Nord S/SE 14.8
30 Agosto 2026 22:35 tempo osservato: Sereno Sereno 31 40 1014 vento: Nord S/SE 14.8
30 Agosto 2026 22:15 tempo osservato: Sereno Sereno 31 40 1014 vento: Nord S/SE 13
30 Agosto 2026 21:55 tempo osservato: Sereno Sereno 30 40 1014 vento: Nord S/SE 9.3
30 Agosto 2026 21:35 tempo osservato: Sereno Sereno 31 37 1014 vento: Nord S/SE 11.1
30 Agosto 2026 21:15 tempo osservato: Sereno Sereno 31 37 1014 vento: Nord S/SE 11.1
30 Agosto 2026 20:55 tempo osservato: Sereno Sereno 32 35 1014 vento: Nord S/SE 9.3
30 Agosto 2026 20:35 tempo osservato: Sereno Sereno 32 33 1013 vento: Nord S/SE 11.1
30 Agosto 2026 20:15 tempo osservato: Sereno Sereno 33 33 1013 vento: Nord S 13
30 Agosto 2026 19:55 tempo osservato: Sereno Sereno 33 33 1013 vento: Nord S 11.1
30 Agosto 2026 19:35 tempo osservato: Sereno Sereno 34 32 1013 vento: Nord S 11.1
30 Agosto 2026 19:15 tempo osservato: Sereno Sereno 35 28 1013 vento: Nord S 14.8
30 Agosto 2026 18:50 tempo osservato: Sereno Sereno 37 23 1013 vento: Nord S/SE 16.7
30 Agosto 2026 17:50 tempo osservato: Sereno Sereno 36 28 1013 vento: Nord S/SE 18.5
30 Agosto 2026 16:50 tempo osservato: Nuvoloso Nuvoloso 37 28 1013 vento: Nord SE 18.5
30 Agosto 2026 15:50 tempo osservato: Nuvoloso Nuvoloso 37 28 1014 vento: Nord S 14.8
30 Agosto 2026 13:50 tempo osservato: Nuvoloso Nuvoloso 35 34 1015 vento: Nord S 25.9
30 Agosto 2026 12:50 tempo osservato: Poco Nuvoloso Poco Nuvoloso 37 32 1016 vento: Nord S 27.8
30 Agosto 2026 11:50 tempo osservato: Sereno Sereno 36 36 1017 vento: Nord S/SO 20.3
30 Agosto 2026 10:50 tempo osservato: Sereno Sereno 34 43 1017 vento: Nord SO 18.5
30 Agosto 2026 09:50 tempo osservato: Sereno Sereno 32 49 1017 vento: Nord SO 18.5
30 Agosto 2026 08:50 tempo osservato: Sereno Sereno 29 54 1017 vento: Nord S 13
30 Agosto 2026 07:50 tempo osservato: Sereno Sereno 27 57 1017 vento: Nord S/SE 16.7
30 Agosto 2026 06:50 tempo osservato: Sereno Sereno 26 57 1016 vento: Nord S/SE 14.8
30 Agosto 2026 06:35 tempo osservato: Sereno Sereno 26 57 1016 vento: Nord S/SE 18.5
30 Agosto 2026 06:15 tempo osservato: Sereno Sereno 26 57 1015 vento: Nord S/SE 16.7
30 Agosto 2026 05:55 tempo osservato: Sereno Sereno 27 54 1016 vento: Nord S/SE 16.7
30 Agosto 2026 05:35 tempo osservato: Sereno Sereno 27 54 1016 vento: Nord S/SE 18.5
30 Agosto 2026 05:15 tempo osservato: Sereno Sereno 27 54 1015 vento: Nord S/SE 18.5
30 Agosto 2026 04:55 tempo osservato: Sereno Sereno 27 54 1015 vento: Nord S/SE 22.2
30 Agosto 2026 04:35 tempo osservato: Sereno Sereno 28 51 1015 vento: Nord S/SE 20.3
30 Agosto 2026 04:15 tempo osservato: Sereno Sereno 28 48 1015 vento: Nord S/SE 22.2
30 Agosto 2026 03:55 tempo osservato: Sereno Sereno 28 48 1015 vento: Nord S/SE 25.9
30 Agosto 2026 03:35 tempo osservato: Sereno Sereno 28 48 1015 vento: Nord S/SE 20.3
30 Agosto 2026 03:15 tempo osservato: Sereno Sereno 29 45 1015 vento: Nord S/SE 22.2
30 Agosto 2026 02:55 tempo osservato: Sereno Sereno 29 45 1016 vento: Nord S/SE 22.2
30 Agosto 2026 02:35 tempo osservato: Sereno Sereno 29 45 1016 vento: Nord S/SE 22.2
30 Agosto 2026 02:15 tempo osservato: Sereno Sereno 29 45 1016 vento: Nord S/SE 22.2
30 Agosto 2026 01:55 tempo osservato: Sereno Sereno 30 42 1016 vento: Nord S/SE 22.2
30 Agosto 2026 01:35 tempo osservato: Sereno Sereno 30 42 1016 vento: Nord S/SE 22.2